Avon Lake, Iowa
Current Conditions -  °F | °C
As of 12:54 PM on Friday 28 Nov 2014 (Local Time) from KDSM Reporting Station
Broken Clouds Broken Clouds  
Wind Chill: 34°   Ceiling: 26000
Heat Index: 40°   Visibility: 10mi
Dew Point: 27°   Wind: 9mph
Humidity: 60%   Direction: 200°SSW
Pressure: 29.82"   Gusts: NA
Location:  41.4707°N, 93.4797°W
Report Text: KDSM 281854Z 20008KT 10SM FEW180 BKN260 04/M03 A2982 RMK AO2 SLP109 T00441028
Loading
Personal Weather Stations






























Interactive Weather Map New forecast layout! Learn more

10-Day Weather Forecast

Advertisements
Track Severe Weather on mobile